Time;durP1;ratioP1;P1;durP2;ratioP2;P2;SDS_P1;SDS_P2;PMS_P1;PMS_P2;Temp;Humidity;BMP_temperature;BMP_pressure;BME280_temperature;BME280_humidity;BME280_pressure;Samples;Min_cycle;Max_cycle;Signal;HPM_P1;HPM_P2
2024/01/08 00:00:07;;;;;;;3.10;2.70;;;-0.40;99.90;;;;;;5094861;28;20669;-78
2024/01/08 00:02:33;;;;;;;5.20;2.90;;;-0.50;99.90;;;;;;5094691;28;20244;-78
2024/01/08 00:04:58;;;;;;;2.20;2.00;;;-0.50;99.90;;;;;;5094883;28;20209;-78
2024/01/08 00:07:25;;;;;;;3.20;2.20;;;-0.50;99.90;;;;;;5094897;28;20257;-79
2024/01/08 00:09:50;;;;;;;4.63;2.07;;;-0.50;99.90;;;;;;5094950;28;20249;-78
2024/01/08 00:12:16;;;;;;;2.20;2.00;;;-0.60;99.90;;;;;;5095337;28;20177;-78
2024/01/08 00:14:41;;;;;;;3.60;2.50;;;-0.60;99.90;;;;;;5095120;28;20200;-78
2024/01/08 00:17:07;;;;;;;3.17;2.10;;;-0.50;99.90;;;;;;5095381;28;20186;-79
2024/01/08 00:19:32;;;;;;;3.73;2.33;;;-0.50;99.90;;;;;;5095481;28;20170;-79
2024/01/08 00:21:58;;;;;;;3.33;2.60;;;-0.50;99.90;;;;;;5093370;28;20553;-78
2024/01/08 00:24:24;;;;;;;3.03;2.43;;;-0.60;99.90;;;;;;5093995;28;20170;-78
2024/01/08 00:26:49;;;;;;;3.20;2.70;;;-0.60;99.90;;;;;;5094893;28;20539;-78
2024/01/08 00:29:14;;;;;;;3.33;2.43;;;-0.60;99.90;;;;;;5097346;28;20184;-78
2024/01/08 00:31:40;;;;;;;2.90;2.50;;;-0.50;99.90;;;;;;5109662;28;20178;-78
2024/01/08 00:34:06;;;;;;;3.37;3.00;;;-0.50;99.90;;;;;;5099761;28;20177;-78
2024/01/08 00:36:34;;;;;;;6.20;3.87;;;-0.60;99.90;;;;;;5094611;28;20566;-78
2024/01/08 00:39:00;;;;;;;4.90;3.20;;;-0.50;99.90;;;;;;5095726;28;20276;-78
2024/01/08 00:41:25;;;;;;;5.07;4.10;;;-0.50;99.90;;;;;;5097769;28;20221;-78
2024/01/08 00:43:51;;;;;;;5.67;3.90;;;-0.60;99.90;;;;;;5097870;28;20199;-78
2024/01/08 00:46:17;;;;;;;5.87;4.00;;;-0.60;99.90;;;;;;5098968;28;20565;-79
2024/01/08 00:48:43;;;;;;;5.27;4.20;;;-0.60;99.90;;;;;;5099959;28;20167;-79
2024/01/08 00:51:09;;;;;;;6.13;4.10;;;-0.60;99.90;;;;;;5097623;28;20661;-78
2024/01/08 00:53:35;;;;;;;8.13;4.80;;;-0.60;99.90;;;;;;5099962;28;20177;-78
2024/01/08 00:56:00;;;;;;;5.30;3.97;;;-0.60;99.90;;;;;;5099735;28;20192;-79
2024/01/08 00:58:26;;;;;;;5.37;4.23;;;-0.70;99.90;;;;;;5100017;28;20273;-79
2024/01/08 01:00:51;;;;;;;5.70;3.73;;;-0.60;99.90;;;;;;5102757;28;20224;-78
2024/01/08 01:03:17;;;;;;;3.93;3.47;;;-0.60;99.90;;;;;;5108976;28;20301;-78
2024/01/08 01:05:42;;;;;;;4.83;3.77;;;-0.60;99.90;;;;;;5105073;28;20231;-78
2024/01/08 01:08:08;;;;;;;8.87;3.90;;;-0.60;99.90;;;;;;5106681;28;20178;-78
2024/01/08 01:10:33;;;;;;;4.57;3.60;;;-0.70;99.90;;;;;;5103379;28;20238;-79
2024/01/08 01:12:59;;;;;;;5.37;3.27;;;-0.60;99.90;;;;;;5098473;28;20174;-79
2024/01/08 01:15:25;;;;;;;4.73;3.37;;;-0.70;99.90;;;;;;5098837;28;20201;-79
2024/01/08 01:17:50;;;;;;;5.10;3.67;;;-0.70;99.90;;;;;;5100669;28;20182;-78
2024/01/08 01:20:16;;;;;;;4.10;3.37;;;-0.70;99.90;;;;;;5098968;28;20182;-79
2024/01/08 01:22:42;;;;;;;6.73;3.60;;;-0.70;99.90;;;;;;5099717;28;20189;-78
2024/01/08 01:25:07;;;;;;;4.47;3.57;;;-0.70;99.90;;;;;;5100797;28;20257;-78
2024/01/08 01:27:33;;;;;;;4.57;3.43;;;-0.80;99.90;;;;;;5109347;28;20180;-77
2024/01/08 01:29:58;;;;;;;5.07;3.70;;;-0.80;99.90;;;;;;5114622;28;20177;-78
2024/01/08 01:32:24;;;;;;;5.83;3.47;;;-0.70;99.90;;;;;;5113800;28;20249;-78
2024/01/08 01:34:49;;;;;;;5.13;3.90;;;-0.70;99.90;;;;;;5114488;28;20677;-77
2024/01/08 01:37:15;;;;;;;10.27;4.20;;;-0.80;99.90;;;;;;5112411;28;20174;-78
2024/01/08 01:39:40;;;;;;;5.90;3.70;;;-0.80;99.90;;;;;;5114244;28;20261;-78
2024/01/08 01:42:06;;;;;;;4.73;4.03;;;-0.80;99.90;;;;;;5112858;28;20679;-78
2024/01/08 01:44:32;;;;;;;5.60;4.17;;;-0.80;99.90;;;;;;5111623;28;20206;-77
2024/01/08 01:46:58;;;;;;;5.00;3.83;;;-0.90;99.90;;;;;;5111737;28;20190;-77
2024/01/08 01:49:24;;;;;;;5.97;4.30;;;-0.90;99.90;;;;;;5109389;28;20194;-77
2024/01/08 01:51:50;;;;;;;5.67;4.10;;;-0.90;99.90;;;;;;5110805;28;20162;-77
2024/01/08 01:54:20;;;;;;;4.83;4.10;;;-0.90;99.90;;;;;;5110285;28;20181;-77
2024/01/08 01:56:53;;;;;;;6.33;3.80;;;-1.00;99.90;;;;;;5111232;28;20170;-77
2024/01/08 01:59:19;;;;;;;5.23;3.90;;;-1.00;99.90;;;;;;5109330;28;20208;-77
2024/01/08 02:01:45;;;;;;;5.40;4.03;;;-1.10;99.90;;;;;;5110539;28;20196;-77
2024/01/08 02:04:13;;;;;;;5.10;4.20;;;-1.10;99.90;;;;;;5110284;28;20552;-77
2024/01/08 02:06:40;;;;;;;6.73;4.27;;;-1.10;99.90;;;;;;5109945;28;20210;-77
2024/01/08 02:09:06;;;;;;;6.00;4.23;;;-1.20;99.90;;;;;;5105950;28;20181;-77
2024/01/08 02:11:32;;;;;;;5.37;3.90;;;-1.20;99.90;;;;;;5093809;28;20201;-77
2024/01/08 02:13:58;;;;;;;5.77;3.97;;;-1.20;99.90;;;;;;5095033;28;20358;-77
2024/01/08 02:16:24;;;;;;;7.17;4.17;;;-1.20;99.90;;;;;;5093401;28;20201;-78
2024/01/08 02:18:51;;;;;;;6.20;4.37;;;-1.20;99.90;;;;;;5094763;28;20184;-78
2024/01/08 02:21:16;;;;;;;4.97;4.33;;;-1.20;99.90;;;;;;5094736;28;20182;-78
2024/01/08 02:23:42;;;;;;;5.67;4.40;;;-1.20;99.90;;;;;;5094536;28;20277;-77
2024/01/08 02:26:09;;;;;;;6.63;4.37;;;-1.20;99.90;;;;;;5094213;28;20312;-77
2024/01/08 02:28:35;;;;;;;6.87;4.00;;;-1.30;99.90;;;;;;5093030;28;20182;-77
2024/01/08 02:31:00;;;;;;;9.70;4.57;;;-1.30;99.90;;;;;;5094494;28;20278;-77
2024/01/08 02:33:26;;;;;;;6.17;4.43;;;-1.30;99.90;;;;;;5094451;28;20185;-78
2024/01/08 02:35:51;;;;;;;6.57;4.50;;;-1.30;99.90;;;;;;5094346;28;20205;-77
2024/01/08 02:38:17;;;;;;;7.37;5.10;;;-1.20;99.90;;;;;;5094484;28;20238;-77
2024/01/08 02:40:43;;;;;;;6.60;4.43;;;-1.20;99.90;;;;;;5094515;28;20233;-77
2024/01/08 02:43:08;;;;;;;7.17;4.73;;;-1.30;99.90;;;;;;5094456;28;20213;-78
2024/01/08 02:45:34;;;;;;;6.20;4.40;;;-1.20;99.90;;;;;;5092688;28;20233;-77
2024/01/08 02:47:59;;;;;;;6.40;4.90;;;-1.20;99.90;;;;;;5094122;28;20246;-78
2024/01/08 02:50:25;;;;;;;7.03;4.57;;;-1.20;99.90;;;;;;5094125;28;20575;-78
2024/01/08 02:52:50;;;;;;;6.63;5.03;;;-1.20;99.90;;;;;;5094251;28;20173;-78
2024/01/08 02:55:16;;;;;;;5.17;4.40;;;-1.20;99.90;;;;;;5093884;28;20193;-77
2024/01/08 02:57:41;;;;;;;8.07;4.80;;;-1.20;99.90;;;;;;5094304;28;20185;-77
2024/01/08 03:00:08;;;;;;;6.40;4.97;;;-1.20;99.90;;;;;;5093855;28;20182;-78
2024/01/08 03:02:34;;;;;;;5.37;4.87;;;-1.20;99.90;;;;;;5093289;28;20181;-78
2024/01/08 03:05:00;;;;;;;7.57;5.27;;;-1.20;99.90;;;;;;5098209;28;20194;-78
2024/01/08 03:07:26;;;;;;;8.47;5.17;;;-1.20;99.90;;;;;;5094794;28;20226;-78
2024/01/08 03:09:56;;;;;;;7.50;5.03;;;-1.30;99.90;;;;;;5094199;28;20169;-78
2024/01/08 03:12:22;;;;;;;7.63;4.67;;;-1.20;99.90;;;;;;5094474;28;20241;-78
2024/01/08 03:14:48;;;;;;;8.07;4.77;;;-1.30;99.90;;;;;;5095188;28;20236;-78
2024/01/08 03:17:13;;;;;;;8.03;5.03;;;-1.20;99.90;;;;;;5094377;28;20181;-78
2024/01/08 03:19:39;;;;;;;7.73;5.10;;;-1.30;99.90;;;;;;5095751;28;20230;-77
2024/01/08 03:22:04;;;;;;;6.50;5.20;;;-1.20;99.90;;;;;;5096229;28;20255;-77
2024/01/08 03:24:31;;;;;;;7.20;4.90;;;-1.20;99.90;;;;;;5094454;28;20170;-77
2024/01/08 03:26:56;;;;;;;7.57;5.37;;;-1.20;99.90;;;;;;5093638;28;20193;-78
2024/01/08 03:29:23;;;;;;;6.87;4.97;;;-1.20;99.90;;;;;;5092027;28;20177;-78
2024/01/08 03:31:48;;;;;;;7.23;5.63;;;-1.20;99.90;;;;;;5093372;28;20213;-78
2024/01/08 03:34:14;;;;;;;6.53;5.03;;;-1.20;99.90;;;;;;5097368;28;20170;-77
2024/01/08 03:36:46;;;;;;;13.23;5.70;;;-1.20;99.90;;;;;;5102515;28;20232;-77
2024/01/08 03:39:13;;;;;;;7.03;5.20;;;-1.10;99.90;;;;;;5095138;28;20192;-77
2024/01/08 03:41:42;;;;;;;8.03;5.40;;;-1.10;99.90;;;;;;5093613;28;20177;-77
2024/01/08 03:44:09;;;;;;;8.53;5.30;;;-1.10;99.90;;;;;;5092236;28;20183;-77
2024/01/08 03:46:38;;;;;;;8.10;5.67;;;-1.10;99.90;;;;;;5093256;28;20746;-77
2024/01/08 03:49:04;;;;;;;6.57;5.40;;;-1.10;99.90;;;;;;5093586;28;20542;-77
2024/01/08 03:51:30;;;;;;;6.20;5.23;;;-1.10;99.90;;;;;;5091752;28;20173;-77
2024/01/08 03:53:56;;;;;;;8.07;5.77;;;-1.10;99.90;;;;;;5093541;28;20259;-77
2024/01/08 03:56:22;;;;;;;7.03;5.17;;;-1.10;99.90;;;;;;5091709;28;20240;-78
2024/01/08 03:58:47;;;;;;;9.90;6.03;;;-1.10;99.90;;;;;;5091916;28;20181;-77
2024/01/08 04:01:13;;;;;;;7.73;6.00;;;-1.10;99.90;;;;;;5093242;28;20664;-77
2024/01/08 04:03:38;;;;;;;7.27;5.93;;;-1.10;99.90;;;;;;5093386;28;20191;-78
2024/01/08 04:06:04;;;;;;;8.43;5.87;;;-1.10;99.90;;;;;;5092729;28;20216;-78
2024/01/08 04:08:30;;;;;;;7.20;5.77;;;-1.10;99.90;;;;;;5091775;28;20178;-77
2024/01/08 04:10:55;;;;;;;6.40;5.17;;;-1.00;99.90;;;;;;5091741;28;20186;-78
2024/01/08 04:13:21;;;;;;;8.20;6.10;;;-1.00;99.90;;;;;;5090826;28;20234;-78
2024/01/08 04:15:46;;;;;;;7.53;6.13;;;-1.00;99.90;;;;;;5091470;28;20247;-78
2024/01/08 04:18:13;;;;;;;7.10;6.07;;;-1.00;99.90;;;;;;5091430;28;20181;-78
2024/01/08 04:20:39;;;;;;;7.70;6.13;;;-1.00;99.90;;;;;;5093493;28;20182;-77
2024/01/08 04:23:05;;;;;;;7.87;5.27;;;-1.00;99.90;;;;;;5092844;28;20173;-77
2024/01/08 04:25:30;;;;;;;8.23;6.10;;;-1.00;99.90;;;;;;5091607;28;20236;-78
2024/01/08 04:27:56;;;;;;;9.67;6.20;;;-1.00;99.90;;;;;;5092813;28;20223;-77
2024/01/08 04:30:22;;;;;;;7.20;5.80;;;-1.00;99.90;;;;;;5091522;28;20658;-78
2024/01/08 04:32:47;;;;;;;7.67;5.67;;;-1.00;99.90;;;;;;5092887;28;20189;-77
2024/01/08 04:35:13;;;;;;;9.73;5.50;;;-1.00;99.90;;;;;;5092445;28;20277;-78
2024/01/08 04:37:39;;;;;;;6.93;5.60;;;-1.00;99.90;;;;;;5093268;28;20269;-78
2024/01/08 04:40:05;;;;;;;7.77;5.90;;;-1.00;99.90;;;;;;5091712;28;20191;-78
2024/01/08 04:42:31;;;;;;;7.07;5.47;;;-1.00;99.90;;;;;;5092110;28;20181;-78
2024/01/08 04:44:56;;;;;;;8.63;6.13;;;-1.00;99.90;;;;;;5092808;28;20741;-77
2024/01/08 04:47:22;;;;;;;8.00;5.43;;;-0.90;99.90;;;;;;5091484;28;20177;-78
2024/01/08 04:49:47;;;;;;;11.37;6.33;;;-0.90;99.90;;;;;;5091216;28;20181;-78
2024/01/08 04:52:13;;;;;;;7.33;5.67;;;-1.00;99.90;;;;;;5092569;28;20226;-77
2024/01/08 04:54:42;;;;;;;7.40;5.90;;;-1.00;99.90;;;;;;5091211;28;20241;-78
2024/01/08 04:57:07;;;;;;;6.83;5.63;;;-1.00;99.90;;;;;;5091154;28;20184;-77
2024/01/08 04:59:38;;;;;;;7.87;6.17;;;-1.00;99.90;;;;;;5092560;28;20174;-78
2024/01/08 05:02:03;;;;;;;7.27;5.33;;;-1.00;99.90;;;;;;5091122;28;20170;-78
2024/01/08 05:04:29;;;;;;;8.83;6.17;;;-1.00;99.90;;;;;;5092531;28;20201;-77
2024/01/08 05:06:54;;;;;;;7.83;5.83;;;-1.00;99.90;;;;;;5091239;28;20197;-78
2024/01/08 05:09:20;;;;;;;8.37;6.23;;;-1.00;99.90;;;;;;5090837;28;20587;-77
2024/01/08 05:11:45;;;;;;;8.50;5.17;;;-1.00;99.90;;;;;;5092646;28;20249;-78
2024/01/08 05:14:11;;;;;;;8.53;6.10;;;-1.00;99.90;;;;;;5092581;28;20185;-78
2024/01/08 05:16:37;;;;;;;9.93;6.17;;;-1.00;99.90;;;;;;5092647;28;20198;-78
2024/01/08 05:19:02;;;;;;;7.90;6.00;;;-1.00;99.90;;;;;;5092511;28;20173;-77
2024/01/08 05:21:28;;;;;;;6.83;6.03;;;-1.00;99.90;;;;;;5092620;28;20200;-78
2024/01/08 05:23:53;;;;;;;7.47;5.87;;;-1.00;99.90;;;;;;5092266;28;20196;-78
2024/01/08 05:26:19;;;;;;;8.80;5.77;;;-1.00;99.90;;;;;;5094258;28;20575;-78
2024/01/08 05:28:44;;;;;;;7.13;5.90;;;-1.00;99.90;;;;;;5096035;28;20551;-77
2024/01/08 05:31:10;;;;;;;8.97;5.70;;;-1.00;99.90;;;;;;5096278;28;20195;-78
2024/01/08 05:33:35;;;;;;;6.27;5.30;;;-1.00;99.90;;;;;;5098440;28;20532;-77
2024/01/08 05:36:01;;;;;;;8.20;6.30;;;-0.90;99.90;;;;;;5102091;28;20201;-77
2024/01/08 05:38:27;;;;;;;7.30;6.00;;;-1.00;99.90;;;;;;5098323;28;20642;-77
2024/01/08 05:40:55;;;;;;;9.50;6.33;;;-1.00;99.90;;;;;;5095284;28;20637;-77
2024/01/08 05:43:21;;;;;;;8.27;6.53;;;-0.90;99.90;;;;;;5094511;28;20530;-77
2024/01/08 05:45:46;;;;;;;8.50;6.30;;;-1.00;99.90;;;;;;5093600;28;20201;-78
2024/01/08 05:48:12;;;;;;;9.70;7.00;;;-0.90;99.90;;;;;;5094288;28;20256;-78
2024/01/08 05:50:38;;;;;;;8.17;6.13;;;-0.90;99.90;;;;;;5094539;28;20173;-78
2024/01/08 05:53:03;;;;;;;7.73;6.13;;;-0.90;99.90;;;;;;5094424;28;20715;-78
2024/01/08 05:55:29;;;;;;;10.13;7.20;;;-0.90;99.90;;;;;;5094397;28;20263;-78
2024/01/08 05:57:54;;;;;;;11.30;7.20;;;-0.90;99.90;;;;;;5094019;28;20178;-78
2024/01/08 06:00:21;;;;;;;8.47;6.37;;;-0.90;99.90;;;;;;5094165;28;20174;-77
2024/01/08 06:02:47;;;;;;;9.00;6.40;;;-0.90;99.90;;;;;;5095475;28;20162;-77
2024/01/08 06:05:13;;;;;;;9.33;6.70;;;-0.90;99.90;;;;;;5094988;28;20198;-78
2024/01/08 06:07:39;;;;;;;11.60;6.27;;;-1.00;99.90;;;;;;5094876;28;20189;-76
2024/01/08 06:10:04;;;;;;;9.43;6.57;;;-0.90;99.90;;;;;;5094944;28;20177;-77
2024/01/08 06:12:30;;;;;;;8.07;6.20;;;-1.00;99.90;;;;;;5094096;28;20537;-76
2024/01/08 06:14:56;;;;;;;8.20;6.50;;;-0.90;99.90;;;;;;5093457;28;20768;-77
2024/01/08 06:17:22;;;;;;;12.27;6.73;;;-0.90;99.90;;;;;;5094986;28;20222;-77
2024/01/08 06:19:48;;;;;;;8.10;5.87;;;-0.90;99.90;;;;;;5095131;28;20201;-77
2024/01/08 06:22:14;;;;;;;9.20;6.23;;;-1.00;99.90;;;;;;5093781;28;20170;-77
2024/01/08 06:24:40;;;;;;;9.87;5.97;;;-0.90;99.90;;;;;;5095155;28;20177;-77
2024/01/08 06:27:06;;;;;;;8.47;6.17;;;-0.90;99.90;;;;;;5095248;28;20206;-77
2024/01/08 06:29:32;;;;;;;9.00;6.47;;;-0.90;99.90;;;;;;5094328;28;20177;-78
2024/01/08 06:31:57;;;;;;;9.60;6.03;;;-0.90;99.90;;;;;;5095230;28;20178;-78
2024/01/08 06:34:23;;;;;;;9.27;6.30;;;-0.80;99.90;;;;;;5095634;28;20159;-77
2024/01/08 06:36:48;;;;;;;10.97;7.33;;;-0.90;99.90;;;;;;5093109;28;20645;-78
2024/01/08 06:39:14;;;;;;;7.27;5.73;;;-0.90;99.90;;;;;;5103036;28;20652;-78
2024/01/08 06:41:40;;;;;;;9.67;6.47;;;-0.90;99.90;;;;;;5102762;28;20599;-78
2024/01/08 06:44:05;;;;;;;12.17;7.37;;;-0.80;99.90;;;;;;5094775;28;20537;-76
2024/01/08 06:46:31;;;;;;;7.43;6.30;;;-0.90;99.90;;;;;;5094154;28;20244;-77
2024/01/08 06:48:57;;;;;;;7.90;5.97;;;-0.90;99.90;;;;;;5093888;28;20178;-78
2024/01/08 06:51:23;;;;;;;8.80;6.57;;;-0.90;99.90;;;;;;5094285;28;20170;-77
2024/01/08 06:53:49;;;;;;;8.90;6.27;;;-0.90;99.90;;;;;;5093301;28;20181;-77
2024/01/08 06:56:14;;;;;;;8.23;6.07;;;-0.90;99.90;;;;;;5092459;28;20351;-77
2024/01/08 06:58:40;;;;;;;11.87;6.30;;;-0.90;99.90;;;;;;5104738;28;20716;-77
2024/01/08 07:01:06;;;;;;;9.90;6.23;;;-0.80;99.90;;;;;;5114242;28;20684;-77
2024/01/08 07:03:32;;;;;;;11.00;6.67;;;-0.80;99.90;;;;;;5114264;28;20313;-78
2024/01/08 07:05:57;;;;;;;7.07;6.17;;;-0.80;99.90;;;;;;5112592;28;20736;-78
2024/01/08 07:08:23;;;;;;;8.33;6.50;;;-0.80;99.90;;;;;;5114222;28;20212;-77
2024/01/08 07:10:49;;;;;;;8.20;6.13;;;-0.80;99.90;;;;;;5114362;28;20245;-77
2024/01/08 07:13:17;;;;;;;6.83;5.50;;;-0.80;99.90;;;;;;5113955;28;20183;-77
2024/01/08 07:15:48;;;;;;;8.17;5.63;;;-0.80;99.90;;;;;;5112626;28;20639;-77
2024/01/08 07:18:20;;;;;;;8.60;6.00;;;-0.80;99.90;;;;;;5112451;28;20166;-77
2024/01/08 07:20:46;;;;;;;6.87;5.60;;;-0.80;99.90;;;;;;5114239;28;20172;-77
2024/01/08 07:23:13;;;;;;;8.20;5.43;;;-0.80;99.90;;;;;;5112534;28;20714;-77
2024/01/08 07:25:39;;;;;;;7.67;5.03;;;-0.80;99.90;;;;;;5112424;28;20243;-77
2024/01/08 07:28:09;;;;;;;5.87;4.30;;;-0.80;99.90;;;;;;5112492;28;20733;-77
2024/01/08 07:30:35;;;;;;;7.23;4.70;;;-0.80;99.90;;;;;;5113924;28;20656;-77
2024/01/08 07:33:01;;;;;;;7.03;4.70;;;-0.80;99.90;;;;;;5113720;28;20185;-77
2024/01/08 07:35:27;;;;;;;6.60;4.33;;;-0.70;99.90;;;;;;5113367;28;20246;-76
2024/01/08 07:37:56;;;;;;;6.73;4.40;;;-0.70;99.90;;;;;;5112422;28;20197;-77
2024/01/08 07:40:25;;;;;;;6.63;4.73;;;-0.70;99.90;;;;;;5113863;28;20233;-77
2024/01/08 07:42:55;;;;;;;6.33;4.17;;;-0.70;99.90;;;;;;5114089;28;20178;-78
2024/01/08 07:45:26;;;;;;;6.17;4.87;;;-0.70;99.90;;;;;;5114622;28;20568;-77
2024/01/08 07:47:52;;;;;;;4.93;4.43;;;-0.70;99.90;;;;;;5117407;28;20639;-77
2024/01/08 07:50:19;;;;;;;7.17;4.90;;;-0.70;99.90;;;;;;5121776;28;20220;-77
2024/01/08 07:52:44;;;;;;;7.03;4.83;;;-0.70;99.90;;;;;;5114660;28;20183;-77
2024/01/08 07:55:10;;;;;;;5.97;4.70;;;-0.70;99.90;;;;;;5111675;28;20196;-77
2024/01/08 07:57:36;;;;;;;8.87;5.03;;;-0.70;99.90;;;;;;5112395;28;20172;-77
2024/01/08 08:00:04;;;;;;;7.07;5.07;;;-0.70;99.90;;;;;;5113588;28;20656;-77
2024/01/08 08:02:29;;;;;;;6.73;5.50;;;-0.70;99.90;;;;;;5112106;28;20612;-77
2024/01/08 08:04:54;;;;;;;7.43;5.07;;;-0.70;99.90;;;;;;5108945;28;20292;-77
2024/01/08 08:07:20;;;;;;;7.07;4.90;;;-0.70;99.90;;;;;;5113222;28;20196;-77
2024/01/08 08:09:46;;;;;;;10.07;5.77;;;-0.70;99.90;;;;;;5113312;28;20271;-77
2024/01/08 08:12:12;;;;;;;7.77;5.20;;;-0.70;99.90;;;;;;5111920;28;20193;-77
2024/01/08 08:14:37;;;;;;;9.50;6.07;;;-0.70;99.90;;;;;;5104718;28;20613;-77
2024/01/08 08:17:04;;;;;;;8.30;5.23;;;-0.70;99.90;;;;;;5091727;28;20653;-78
2024/01/08 08:19:29;;;;;;;7.43;6.10;;;-0.70;99.90;;;;;;5092843;28;20189;-78
2024/01/08 08:21:55;;;;;;;7.23;5.40;;;-0.70;99.90;;;;;;5106007;28;20177;-77
2024/01/08 08:24:21;;;;;;;9.60;5.63;;;-0.70;99.90;;;;;;5100616;28;20233;-77
2024/01/08 08:26:46;;;;;;;7.40;5.23;;;-0.70;99.90;;;;;;5092782;28;20209;-78
2024/01/08 08:29:12;;;;;;;8.93;5.83;;;-0.70;99.90;;;;;;5092836;28;20177;-77
2024/01/08 08:31:38;;;;;;;6.33;4.97;;;-0.70;99.90;;;;;;5092736;28;20166;-78
2024/01/08 08:34:03;;;;;;;6.50;4.83;;;-0.70;99.90;;;;;;5092319;28;20186;-77
2024/01/08 08:36:29;;;;;;;9.47;5.13;;;-0.70;99.90;;;;;;5106207;28;20287;-78
2024/01/08 08:38:54;;;;;;;7.20;5.53;;;-0.70;99.90;;;;;;5107219;28;20576;-77
2024/01/08 08:41:20;;;;;;;7.90;5.33;;;-0.70;99.90;;;;;;5091185;28;20713;-77
2024/01/08 08:43:46;;;;;;;6.60;5.60;;;-0.70;99.90;;;;;;5092523;28;20193;-77
2024/01/08 08:46:11;;;;;;;7.77;5.17;;;-0.80;99.90;;;;;;5090903;28;20231;-77
2024/01/08 08:48:38;;;;;;;6.53;4.90;;;-0.70;99.90;;;;;;5092394;28;20194;-77
2024/01/08 08:51:05;;;;;;;7.80;5.33;;;-0.70;99.90;;;;;;5092272;28;20174;-77
2024/01/08 08:53:30;;;;;;;8.57;5.57;;;-0.70;99.90;;;;;;5092329;28;20170;-77
2024/01/08 08:55:56;;;;;;;6.83;5.23;;;-0.60;99.90;;;;;;5092132;28;20201;-77
2024/01/08 08:58:23;;;;;;;10.33;5.67;;;-0.60;99.90;;;;;;5092368;28;20186;-77
2024/01/08 09:00:49;;;;;;;6.60;5.40;;;-0.60;99.90;;;;;;5095664;28;20177;-77
2024/01/08 09:03:15;;;;;;;7.33;5.60;;;-0.60;99.90;;;;;;5096335;28;20174;-77
2024/01/08 09:05:41;;;;;;;7.60;5.40;;;-0.60;99.90;;;;;;5101007;28;20561;-77
2024/01/08 09:08:06;;;;;;;8.00;5.13;;;-0.60;99.90;;;;;;5102089;28;20173;-77
2024/01/08 09:10:32;;;;;;;7.30;5.93;;;-0.60;99.90;;;;;;5099185;28;20253;-77
2024/01/08 09:12:58;;;;;;;8.73;6.03;;;-0.60;99.90;;;;;;5101209;28;20216;-77
2024/01/08 09:15:23;;;;;;;6.30;5.10;;;-0.60;99.90;;;;;;5103715;28;20218;-77
2024/01/08 09:17:49;;;;;;;12.30;5.50;;;-0.70;99.90;;;;;;5110387;28;20178;-77
2024/01/08 09:20:15;;;;;;;8.53;5.87;;;-0.60;99.90;;;;;;5101596;28;20170;-77
2024/01/08 09:22:41;;;;;;;9.77;6.37;;;-0.70;99.90;;;;;;5095803;28;20174;-77
2024/01/08 09:25:07;;;;;;;9.37;7.53;;;-0.60;99.90;;;;;;5095773;28;20734;-78
2024/01/08 09:27:32;;;;;;;9.47;6.97;;;-0.60;99.90;;;;;;5095735;28;20586;-77
2024/01/08 09:29:58;;;;;;;8.20;5.63;;;-0.60;99.90;;;;;;5095969;28;20180;-78
2024/01/08 09:32:24;;;;;;;8.20;5.97;;;-0.60;99.90;;;;;;5094312;28;20217;-77
2024/01/08 09:34:50;;;;;;;7.50;5.93;;;-0.60;99.90;;;;;;5096061;28;20202;-77
2024/01/08 09:37:16;;;;;;;7.40;5.10;;;-0.60;99.90;;;;;;5097093;28;20262;-77
2024/01/08 09:39:42;;;;;;;8.90;5.27;;;-0.60;99.90;;;;;;5108532;28;20213;-77
2024/01/08 09:42:08;;;;;;;6.07;4.70;;;-0.50;99.90;;;;;;5094360;28;20232;-78
2024/01/08 09:44:36;;;;;;;8.27;5.20;;;-0.50;99.90;;;;;;5103073;28;20230;-77
2024/01/08 09:47:03;;;;;;;6.87;4.70;;;-0.50;99.90;;;;;;5114444;28;20200;-78
2024/01/08 09:49:32;;;;;;;8.90;4.47;;;-0.60;99.90;;;;;;5114393;28;20242;-77
2024/01/08 09:52:02;;;;;;;6.13;3.87;;;-0.60;99.90;;;;;;5114781;28;20528;-78
2024/01/08 09:54:29;;;;;;;5.77;3.63;;;-0.60;99.90;;;;;;5105863;28;20260;-76
2024/01/08 09:56:58;;;;;;;4.60;3.60;;;-0.60;99.90;;;;;;5108182;28;20236;-78
2024/01/08 09:59:24;;;;;;;9.30;3.70;;;-0.70;99.90;;;;;;5119627;28;20208;-77
2024/01/08 10:01:50;;;;;;;4.07;3.33;;;-0.70;99.90;;;;;;5121752;28;20173;-77
2024/01/08 10:04:16;;;;;;;4.70;3.07;;;-0.70;99.90;;;;;;5119687;28;20184;-78
2024/01/08 10:06:44;;;;;;;4.80;3.20;;;-0.70;99.90;;;;;;5113373;28;20198;-78
2024/01/08 10:09:12;;;;;;;4.47;3.23;;;-0.70;99.90;;;;;;5115257;28;20252;-77
2024/01/08 10:11:39;;;;;;;4.63;3.50;;;-0.70;99.90;;;;;;5114205;28;20529;-77
2024/01/08 10:14:07;;;;;;;6.60;3.77;;;-0.70;99.90;;;;;;5103056;28;20201;-77
2024/01/08 10:16:32;;;;;;;6.87;3.17;;;-0.60;99.90;;;;;;5113707;28;20684;-77
2024/01/08 10:18:58;;;;;;;5.70;3.53;;;-0.60;99.90;;;;;;5113950;28;20184;-77
2024/01/08 10:21:25;;;;;;;4.07;3.10;;;-0.50;99.90;;;;;;5109134;28;20701;-77
2024/01/08 10:23:50;;;;;;;4.00;2.90;;;-0.50;99.90;;;;;;5112029;28;20590;-78
2024/01/08 10:26:17;;;;;;;3.90;3.07;;;-0.50;99.90;;;;;;5094384;28;20201;-77
2024/01/08 10:28:44;;;;;;;6.17;2.80;;;-0.50;99.90;;;;;;5093211;28;20174;-78
2024/01/08 10:31:11;;;;;;;4.63;3.07;;;-0.50;99.90;;;;;;5093025;28;20270;-77
2024/01/08 10:33:37;;;;;;;3.53;2.50;;;-0.50;99.90;;;;;;5094243;28;20666;-77
2024/01/08 10:36:04;;;;;;;3.13;2.40;;;-0.50;99.90;;;;;;5093585;28;20688;-77
2024/01/08 10:38:32;;;;;;;5.20;2.60;;;-0.40;99.90;;;;;;5094334;28;20181;-76
2024/01/08 10:40:58;;;;;;;3.80;2.60;;;-0.50;99.90;;;;;;5093925;28;20251;-77
2024/01/08 10:43:24;;;;;;;4.07;2.73;;;-0.50;99.90;;;;;;5094253;28;20662;-77
2024/01/08 10:45:56;;;;;;;3.87;2.80;;;-0.50;99.90;;;;;;5092573;28;20205;-77
2024/01/08 10:48:28;;;;;;;3.67;2.60;;;-0.60;99.90;;;;;;5093171;28;20161;-77
2024/01/08 10:50:54;;;;;;;3.93;2.70;;;-0.60;99.90;;;;;;5092648;28;20165;-77
2024/01/08 10:53:44;;;;;;;3.40;2.40;;;-0.60;99.90;;;;;;5092780;28;20545;-77
2024/01/08 10:56:14;;;;;;;4.67;2.80;;;-0.60;99.90;;;;;;5092362;28;20626;-77
2024/01/08 10:59:08;;;;;;;3.83;2.63;;;-0.60;99.90;;;;;;5095174;28;20169;-77
2024/01/08 11:01:36;;;;;;;4.57;2.83;;;-0.60;99.90;;;;;;5092201;28;20284;-77
2024/01/08 11:04:03;;;;;;;5.70;3.07;;;-0.60;99.90;;;;;;5094134;28;20198;-77
2024/01/08 11:06:30;;;;;;;3.30;2.53;;;-0.60;99.90;;;;;;5094090;28;20194;-77
2024/01/08 11:09:00;;;;;;;3.50;2.73;;;-0.60;99.90;;;;;;5092972;28;20201;-78
2024/01/08 11:11:26;;;;;;;5.77;2.63;;;-0.60;99.90;;;;;;5094452;28;20174;-78
2024/01/08 11:13:51;;;;;;;4.93;2.90;;;-0.60;99.90;;;;;;5093414;28;20180;-78
2024/01/08 11:16:27;;;;;;;4.63;2.90;;;-0.60;99.90;;;;;;5094334;28;20225;-77
2024/01/08 11:19:19;;;;;;;3.60;2.97;;;-0.60;99.90;;;;;;5093049;28;20176;-77
2024/01/08 11:21:47;;;;;;;5.60;3.03;;;-0.50;99.90;;;;;;5093862;28;20181;-77
2024/01/08 11:24:12;;;;;;;6.63;3.00;;;-0.50;99.90;;;;;;5094299;28;20174;-78
2024/01/08 11:26:43;;;;;;;4.10;2.77;;;-0.50;99.90;;;;;;5092934;28;20206;-78
2024/01/08 11:29:10;;;;;;;4.70;3.33;;;-0.50;99.90;;;;;;5092895;28;20262;-78
2024/01/08 11:31:53;;;;;;;3.90;2.70;;;-0.50;99.90;;;;;;5093892;28;20166;-78
2024/01/08 11:34:24;;;;;;;4.50;2.83;;;-0.50;99.90;;;;;;5092802;28;20276;-78
2024/01/08 11:36:56;;;;;;;3.83;2.73;;;-0.50;99.90;;;;;;5094201;28;20187;-78
2024/01/08 11:39:26;;;;;;;3.57;2.87;;;-0.50;99.90;;;;;;5094285;28;20190;-78
2024/01/08 11:41:51;;;;;;;4.17;3.27;;;-0.50;99.90;;;;;;5089444;28;20174;-78
2024/01/08 11:44:17;;;;;;;3.70;2.73;;;-0.50;99.90;;;;;;5074404;28;20622;-78
2024/01/08 11:46:43;;;;;;;4.07;3.00;;;-0.50;99.90;;;;;;5072495;28;20627;-77
2024/01/08 11:49:09;;;;;;;4.33;2.57;;;-0.50;99.90;;;;;;5072883;28;20174;-78
2024/01/08 11:51:40;;;;;;;3.73;2.47;;;-0.50;99.90;;;;;;5073839;28;20672;-79
2024/01/08 11:54:08;;;;;;;3.40;2.60;;;-0.50;99.90;;;;;;5092747;28;20216;-78
2024/01/08 11:56:37;;;;;;;4.97;2.80;;;-0.50;99.90;;;;;;5093870;28;20189;-78
2024/01/08 11:59:02;;;;;;;6.27;3.37;;;-0.50;99.90;;;;;;5094006;28;20177;-77
2024/01/08 12:01:28;;;;;;;4.63;2.87;;;-0.50;99.90;;;;;;5094375;28;20672;-78
2024/01/08 12:03:59;;;;;;;3.80;2.97;;;-0.50;99.90;;;;;;5092350;28;20172;-77
2024/01/08 12:06:26;;;;;;;4.37;2.93;;;-0.50;99.90;;;;;;5094186;28;20285;-77
2024/01/08 12:08:53;;;;;;;5.10;2.83;;;-0.50;99.90;;;;;;5108699;28;20185;-78
2024/01/08 12:11:19;;;;;;;6.63;2.63;;;-0.40;99.90;;;;;;5115959;28;20204;-78
2024/01/08 12:13:46;;;;;;;4.30;2.60;;;-0.40;99.90;;;;;;5103375;28;20177;-78
2024/01/08 12:16:13;;;;;;;5.73;2.70;;;-0.40;99.90;;;;;;5099348;28;20186;-77
2024/01/08 12:18:40;;;;;;;3.87;2.70;;;-0.40;99.90;;;;;;5094115;28;20267;-76
2024/01/08 12:21:05;;;;;;;3.27;2.70;;;-0.40;99.90;;;;;;5091730;28;20213;-77
2024/01/08 12:23:31;;;;;;;6.63;2.90;;;-0.40;99.90;;;;;;5093238;28;20185;-77
2024/01/08 12:25:57;;;;;;;3.60;2.50;;;-0.40;99.90;;;;;;5092929;28;20202;-77
2024/01/08 12:28:27;;;;;;;4.63;2.77;;;-0.40;99.90;;;;;;5091976;28;20177;-77
2024/01/08 12:30:52;;;;;;;6.80;2.73;;;-0.50;99.90;;;;;;5092728;28;20175;-77
2024/01/08 12:33:21;;;;;;;5.10;2.93;;;-0.50;99.90;;;;;;5092545;28;20279;-77
2024/01/08 12:35:55;;;;;;;4.90;2.80;;;-0.50;99.90;;;;;;5095135;28;20273;-76
2024/01/08 12:38:21;;;;;;;4.93;3.23;;;-0.50;99.90;;;;;;5095314;28;20204;-77
2024/01/08 12:40:53;;;;;;;3.47;2.33;;;-0.50;99.90;;;;;;5096736;28;20182;-77